sensor_id;sensor_type;location;lat;lon;timestamp;temperature;humidity
52481;DHT22;38393;52.404;13.532;2023-04-24T00:02:16;9.80;99.60
52481;DHT22;38393;52.404;13.532;2023-04-24T00:04:42;9.70;99.60
52481;DHT22;38393;52.404;13.532;2023-04-24T00:07:10;9.80;99.70
52481;DHT22;38393;52.404;13.532;2023-04-24T00:09:36;9.80;99.70
52481;DHT22;38393;52.404;13.532;2023-04-24T00:12:01;9.80;99.80
52481;DHT22;38393;52.404;13.532;2023-04-24T00:14:30;9.80;99.90
52481;DHT22;38393;52.404;13.532;2023-04-24T00:16:55;9.70;99.90
52481;DHT22;38393;52.404;13.532;2023-04-24T00:19:21;9.70;99.80
52481;DHT22;38393;52.404;13.532;2023-04-24T00:21:46;9.80;99.80
52481;DHT22;38393;52.404;13.532;2023-04-24T00:24:15;9.70;99.80
52481;DHT22;38393;52.404;13.532;2023-04-24T00:26:41;9.60;99.90
52481;DHT22;38393;52.404;13.532;2023-04-24T00:29:06;9.70;99.90
52481;DHT22;38393;52.404;13.532;2023-04-24T00:31:32;9.60;99.90
52481;DHT22;38393;52.404;13.532;2023-04-24T00:34:00;9.60;99.90
52481;DHT22;38393;52.404;13.532;2023-04-24T00:36:25;9.50;99.90
52481;DHT22;38393;52.404;13.532;2023-04-24T00:38:52;9.50;99.90
52481;DHT22;38393;52.404;13.532;2023-04-24T00:41:18;9.40;99.90
52481;DHT22;38393;52.404;13.532;2023-04-24T00:43:44;9.40;99.90
52481;DHT22;38393;52.404;13.532;2023-04-24T00:46:10;9.20;99.90
52481;DHT22;38393;52.404;13.532;2023-04-24T00:48:37;9.30;99.90
52481;DHT22;38393;52.404;13.532;2023-04-24T00:51:03;9.30;99.90
52481;DHT22;38393;52.404;13.532;2023-04-24T00:53:29;9.30;99.90
52481;DHT22;38393;52.404;13.532;2023-04-24T00:55:55;9.20;99.90
52481;DHT22;38393;52.404;13.532;2023-04-24T00:58:21;9.20;99.90
52481;DHT22;38393;52.404;13.532;2023-04-24T01:00:48;9.20;99.90
52481;DHT22;38393;52.404;13.532;2023-04-24T01:03:16;9.20;99.90
52481;DHT22;38393;52.404;13.532;2023-04-24T01:05:42;9.30;99.90
52481;DHT22;38393;52.404;13.532;2023-04-24T01:08:07;9.40;99.90
52481;DHT22;38393;52.404;13.532;2023-04-24T01:10:35;9.50;99.90
52481;DHT22;38393;52.404;13.532;2023-04-24T01:13:01;9.50;99.90
52481;DHT22;38393;52.404;13.532;2023-04-24T01:15:27;9.50;99.90
52481;DHT22;38393;52.404;13.532;2023-04-24T01:17:53;9.70;99.90
52481;DHT22;38393;52.404;13.532;2023-04-24T01:20:18;9.60;99.90
52481;DHT22;38393;52.404;13.532;2023-04-24T01:22:46;9.70;99.90
52481;DHT22;38393;52.404;13.532;2023-04-24T01:25:11;9.80;99.90
52481;DHT22;38393;52.404;13.532;2023-04-24T01:27:37;10.00;99.90
52481;DHT22;38393;52.404;13.532;2023-04-24T01:30:03;10.00;99.90
52481;DHT22;38393;52.404;13.532;2023-04-24T01:32:28;10.20;99.90
52481;DHT22;38393;52.404;13.532;2023-04-24T01:34:54;10.10;99.90
52481;DHT22;38393;52.404;13.532;2023-04-24T01:37:20;10.10;99.90
52481;DHT22;38393;52.404;13.532;2023-04-24T01:39:46;10.10;99.90
52481;DHT22;38393;52.404;13.532;2023-04-24T01:42:12;10.10;99.90
52481;DHT22;38393;52.404;13.532;2023-04-24T01:44:38;10.00;99.90
52481;DHT22;38393;52.404;13.532;2023-04-24T01:47:04;10.00;99.90
52481;DHT22;38393;52.404;13.532;2023-04-24T01:49:30;10.00;99.90
52481;DHT22;38393;52.404;13.532;2023-04-24T01:51:56;9.90;99.90
52481;DHT22;38393;52.404;13.532;2023-04-24T01:54:22;9.90;99.90
52481;DHT22;38393;52.404;13.532;2023-04-24T01:56:47;9.90;99.90
52481;DHT22;38393;52.404;13.532;2023-04-24T01:59:14;9.90;99.90
52481;DHT22;38393;52.404;13.532;2023-04-24T02:01:42;9.90;99.90
52481;DHT22;38393;52.404;13.532;2023-04-24T02:04:07;9.90;99.90
52481;DHT22;38393;52.404;13.532;2023-04-24T02:06:33;9.90;99.90
52481;DHT22;38393;52.404;13.532;2023-04-24T02:08:59;10.00;99.90
52481;DHT22;38393;52.404;13.532;2023-04-24T02:11:25;9.90;99.90
52481;DHT22;38393;52.404;13.532;2023-04-24T02:13:51;9.90;99.90
52481;DHT22;38393;52.404;13.532;2023-04-24T02:16:17;9.90;99.90
52481;DHT22;38393;52.404;13.532;2023-04-24T02:18:43;10.00;99.90
52481;DHT22;38393;52.404;13.532;2023-04-24T02:21:09;10.10;99.90
52481;DHT22;38393;52.404;13.532;2023-04-24T02:23:35;10.10;99.90
52481;DHT22;38393;52.404;13.532;2023-04-24T02:26:00;10.20;99.90
52481;DHT22;38393;52.404;13.532;2023-04-24T02:28:26;10.30;99.90
52481;DHT22;38393;52.404;13.532;2023-04-24T02:30:51;10.30;99.90
52481;DHT22;38393;52.404;13.532;2023-04-24T02:33:17;10.30;99.90
52481;DHT22;38393;52.404;13.532;2023-04-24T02:35:43;10.50;99.90
52481;DHT22;38393;52.404;13.532;2023-04-24T02:38:08;10.40;99.90
52481;DHT22;38393;52.404;13.532;2023-04-24T02:40:34;10.40;99.90
52481;DHT22;38393;52.404;13.532;2023-04-24T02:42:59;10.40;99.90
52481;DHT22;38393;52.404;13.532;2023-04-24T02:45:25;10.50;99.90
52481;DHT22;38393;52.404;13.532;2023-04-24T02:47:50;10.40;99.90
52481;DHT22;38393;52.404;13.532;2023-04-24T02:50:16;10.40;99.90
52481;DHT22;38393;52.404;13.532;2023-04-24T02:52:41;10.40;99.90
52481;DHT22;38393;52.404;13.532;2023-04-24T02:55:07;10.50;99.90
52481;DHT22;38393;52.404;13.532;2023-04-24T02:57:33;10.60;99.90
52481;DHT22;38393;52.404;13.532;2023-04-24T02:59:59;10.60;99.90
52481;DHT22;38393;52.404;13.532;2023-04-24T03:02:24;10.70;99.90
52481;DHT22;38393;52.404;13.532;2023-04-24T03:04:50;10.60;99.90
52481;DHT22;38393;52.404;13.532;2023-04-24T03:07:16;10.60;99.90
52481;DHT22;38393;52.404;13.532;2023-04-24T03:09:41;10.60;99.90
52481;DHT22;38393;52.404;13.532;2023-04-24T03:12:06;10.60;99.90
52481;DHT22;38393;52.404;13.532;2023-04-24T03:14:32;10.60;99.90
52481;DHT22;38393;52.404;13.532;2023-04-24T03:16:58;10.60;99.90
52481;DHT22;38393;52.404;13.532;2023-04-24T03:19:23;10.70;99.90
52481;DHT22;38393;52.404;13.532;2023-04-24T03:21:49;10.70;99.90
52481;DHT22;38393;52.404;13.532;2023-04-24T03:24:15;10.70;99.90
52481;DHT22;38393;52.404;13.532;2023-04-24T03:26:40;10.70;99.90
52481;DHT22;38393;52.404;13.532;2023-04-24T03:29:06;10.70;99.90
52481;DHT22;38393;52.404;13.532;2023-04-24T03:31:31;10.80;99.90
52481;DHT22;38393;52.404;13.532;2023-04-24T03:33:57;10.70;99.90
52481;DHT22;38393;52.404;13.532;2023-04-24T03:36:22;10.80;99.90
52481;DHT22;38393;52.404;13.532;2023-04-24T03:38:48;10.90;99.90
52481;DHT22;38393;52.404;13.532;2023-04-24T03:41:13;10.80;99.90
52481;DHT22;38393;52.404;13.532;2023-04-24T03:43:39;10.80;99.90
52481;DHT22;38393;52.404;13.532;2023-04-24T03:46:04;10.80;99.90
52481;DHT22;38393;52.404;13.532;2023-04-24T03:48:30;10.80;99.90
52481;DHT22;38393;52.404;13.532;2023-04-24T03:50:55;10.70;99.90
52481;DHT22;38393;52.404;13.532;2023-04-24T03:53:20;10.80;99.90
52481;DHT22;38393;52.404;13.532;2023-04-24T03:55:46;10.80;99.90
52481;DHT22;38393;52.404;13.532;2023-04-24T03:58:12;10.80;99.90
52481;DHT22;38393;52.404;13.532;2023-04-24T04:00:39;10.90;99.90
52481;DHT22;38393;52.404;13.532;2023-04-24T04:03:05;10.80;99.90
52481;DHT22;38393;52.404;13.532;2023-04-24T04:05:31;10.90;99.90
52481;DHT22;38393;52.404;13.532;2023-04-24T04:07:56;10.90;99.90
52481;DHT22;38393;52.404;13.532;2023-04-24T04:10:22;10.90;99.90
52481;DHT22;38393;52.404;13.532;2023-04-24T04:12:47;10.90;99.90
52481;DHT22;38393;52.404;13.532;2023-04-24T04:15:13;10.80;99.90
52481;DHT22;38393;52.404;13.532;2023-04-24T04:17:38;10.80;99.90
52481;DHT22;38393;52.404;13.532;2023-04-24T04:20:04;11.00;99.90
52481;DHT22;38393;52.404;13.532;2023-04-24T04:22:35;10.90;99.90
52481;DHT22;38393;52.404;13.532;2023-04-24T04:25:01;10.90;99.90
52481;DHT22;38393;52.404;13.532;2023-04-24T04:27:27;10.90;99.90
52481;DHT22;38393;52.404;13.532;2023-04-24T04:29:53;11.00;99.90
52481;DHT22;38393;52.404;13.532;2023-04-24T04:32:19;11.00;99.90
52481;DHT22;38393;52.404;13.532;2023-04-24T04:34:44;11.10;99.90
52481;DHT22;38393;52.404;13.532;2023-04-24T04:37:11;11.00;99.90
52481;DHT22;38393;52.404;13.532;2023-04-24T04:39:37;11.10;99.90
52481;DHT22;38393;52.404;13.532;2023-04-24T04:42:03;11.10;99.90
52481;DHT22;38393;52.404;13.532;2023-04-24T04:44:29;11.20;99.90
52481;DHT22;38393;52.404;13.532;2023-04-24T04:46:55;11.30;99.90
52481;DHT22;38393;52.404;13.532;2023-04-24T04:49:21;11.30;99.90
52481;DHT22;38393;52.404;13.532;2023-04-24T04:51:49;11.50;99.90
52481;DHT22;38393;52.404;13.532;2023-04-24T04:54:14;11.50;99.90
52481;DHT22;38393;52.404;13.532;2023-04-24T04:56:41;11.60;99.90
52481;DHT22;38393;52.404;13.532;2023-04-24T04:59:06;11.60;99.70
52481;DHT22;38393;52.404;13.532;2023-04-24T05:01:31;11.70;99.60
52481;DHT22;38393;52.404;13.532;2023-04-24T05:03:57;11.70;99.40
52481;DHT22;38393;52.404;13.532;2023-04-24T05:06:22;11.70;99.30
52481;DHT22;38393;52.404;13.532;2023-04-24T05:08:48;11.70;99.00
52481;DHT22;38393;52.404;13.532;2023-04-24T05:11:14;11.80;99.30
52481;DHT22;38393;52.404;13.532;2023-04-24T05:13:40;11.90;99.00
52481;DHT22;38393;52.404;13.532;2023-04-24T05:16:05;11.80;98.80
52481;DHT22;38393;52.404;13.532;2023-04-24T05:18:31;11.90;98.50
52481;DHT22;38393;52.404;13.532;2023-04-24T05:20:57;11.90;98.50
52481;DHT22;38393;52.404;13.532;2023-04-24T05:23:22;11.90;98.60
52481;DHT22;38393;52.404;13.532;2023-04-24T05:25:48;11.90;98.40
52481;DHT22;38393;52.404;13.532;2023-04-24T05:28:13;12.10;98.10
52481;DHT22;38393;52.404;13.532;2023-04-24T05:30:39;12.10;97.90
52481;DHT22;38393;52.404;13.532;2023-04-24T05:33:04;12.10;97.70
52481;DHT22;38393;52.404;13.532;2023-04-24T05:35:30;12.20;97.70
52481;DHT22;38393;52.404;13.532;2023-04-24T05:37:56;12.20;97.90
52481;DHT22;38393;52.404;13.532;2023-04-24T05:40:21;12.30;97.20
52481;DHT22;38393;52.404;13.532;2023-04-24T05:42:47;12.30;97.40
52481;DHT22;38393;52.404;13.532;2023-04-24T05:45:12;12.30;96.90
52481;DHT22;38393;52.404;13.532;2023-04-24T05:47:42;12.30;97.10
52481;DHT22;38393;52.404;13.532;2023-04-24T05:50:09;12.40;96.60
52481;DHT22;38393;52.404;13.532;2023-04-24T05:52:34;12.60;96.00
52481;DHT22;38393;52.404;13.532;2023-04-24T05:55:00;12.70;95.60
52481;DHT22;38393;52.404;13.532;2023-04-24T05:57:26;12.80;95.10
52481;DHT22;38393;52.404;13.532;2023-04-24T05:59:51;12.70;94.80
52481;DHT22;38393;52.404;13.532;2023-04-24T06:02:17;12.70;94.80
52481;DHT22;38393;52.404;13.532;2023-04-24T06:04:42;12.70;94.90
52481;DHT22;38393;52.404;13.532;2023-04-24T06:07:10;12.70;94.30
52481;DHT22;38393;52.404;13.532;2023-04-24T06:09:36;12.80;94.60
52481;DHT22;38393;52.404;13.532;2023-04-24T06:12:02;12.80;93.80
52481;DHT22;38393;52.404;13.532;2023-04-24T06:14:27;12.90;93.40
52481;DHT22;38393;52.404;13.532;2023-04-24T06:16:53;12.90;93.40
52481;DHT22;38393;52.404;13.532;2023-04-24T06:19:18;13.20;93.10
52481;DHT22;38393;52.404;13.532;2023-04-24T06:21:44;13.40;93.10
52481;DHT22;38393;52.404;13.532;2023-04-24T06:24:09;13.40;92.10
52481;DHT22;38393;52.404;13.532;2023-04-24T06:26:35;13.20;92.30
52481;DHT22;38393;52.404;13.532;2023-04-24T06:29:01;13.10;92.90
52481;DHT22;38393;52.404;13.532;2023-04-24T06:31:27;13.00;92.90
52481;DHT22;38393;52.404;13.532;2023-04-24T06:33:52;13.20;92.50
52481;DHT22;38393;52.404;13.532;2023-04-24T06:36:18;13.20;92.10
52481;DHT22;38393;52.404;13.532;2023-04-24T06:38:43;13.40;92.10
52481;DHT22;38393;52.404;13.532;2023-04-24T06:41:10;13.70;91.30
52481;DHT22;38393;52.404;13.532;2023-04-24T06:43:35;13.80;91.00
52481;DHT22;38393;52.404;13.532;2023-04-24T06:46:01;14.00;90.30
52481;DHT22;38393;52.404;13.532;2023-04-24T06:48:28;14.10;90.10
52481;DHT22;38393;52.404;13.532;2023-04-24T06:50:54;14.30;89.60
52481;DHT22;38393;52.404;13.532;2023-04-24T06:53:19;14.20;88.50
52481;DHT22;38393;52.404;13.532;2023-04-24T06:55:45;14.20;88.50
52481;DHT22;38393;52.404;13.532;2023-04-24T06:58:11;14.40;88.70
52481;DHT22;38393;52.404;13.532;2023-04-24T07:00:37;14.50;85.70
52481;DHT22;38393;52.404;13.532;2023-04-24T07:03:03;14.30;86.10
52481;DHT22;38393;52.404;13.532;2023-04-24T07:05:30;14.20;87.40
52481;DHT22;38393;52.404;13.532;2023-04-24T07:07:56;14.20;86.80
52481;DHT22;38393;52.404;13.532;2023-04-24T07:10:23;14.20;87.40
52481;DHT22;38393;52.404;13.532;2023-04-24T07:12:49;14.30;86.20
52481;DHT22;38393;52.404;13.532;2023-04-24T07:15:15;14.60;84.80
52481;DHT22;38393;52.404;13.532;2023-04-24T07:17:41;14.70;85.70
52481;DHT22;38393;52.404;13.532;2023-04-24T07:20:10;14.80;84.80
52481;DHT22;38393;52.404;13.532;2023-04-24T07:22:36;15.00;82.70
52481;DHT22;38393;52.404;13.532;2023-04-24T07:25:02;14.90;83.60
52481;DHT22;38393;52.404;13.532;2023-04-24T07:27:28;14.90;83.20
52481;DHT22;38393;52.404;13.532;2023-04-24T07:29:54;15.20;83.70
52481;DHT22;38393;52.404;13.532;2023-04-24T07:32:19;15.30;81.70
52481;DHT22;38393;52.404;13.532;2023-04-24T07:34:45;15.50;80.80
52481;DHT22;38393;52.404;13.532;2023-04-24T07:37:11;15.70;76.80
52481;DHT22;38393;52.404;13.532;2023-04-24T07:39:36;16.10;77.20
52481;DHT22;38393;52.404;13.532;2023-04-24T07:42:02;16.00;75.40
52481;DHT22;38393;52.404;13.532;2023-04-24T07:44:27;15.60;75.60
52481;DHT22;38393;52.404;13.532;2023-04-24T07:46:53;15.60;77.30
52481;DHT22;38393;52.404;13.532;2023-04-24T07:49:19;15.60;74.70
52481;DHT22;38393;52.404;13.532;2023-04-24T07:51:44;15.70;75.10
52481;DHT22;38393;52.404;13.532;2023-04-24T07:54:10;15.80;75.10
52481;DHT22;38393;52.404;13.532;2023-04-24T07:56:35;15.60;75.70
52481;DHT22;38393;52.404;13.532;2023-04-24T07:59:04;15.80;75.70
52481;DHT22;38393;52.404;13.532;2023-04-24T08:01:29;15.80;76.70
52481;DHT22;38393;52.404;13.532;2023-04-24T08:03:55;15.80;74.60
52481;DHT22;38393;52.404;13.532;2023-04-24T08:06:21;15.70;74.60
52481;DHT22;38393;52.404;13.532;2023-04-24T08:08:46;15.50;74.10
52481;DHT22;38393;52.404;13.532;2023-04-24T08:11:12;15.30;75.00
52481;DHT22;38393;52.404;13.532;2023-04-24T08:13:37;15.20;74.60
52481;DHT22;38393;52.404;13.532;2023-04-24T08:16:03;15.30;74.30
52481;DHT22;38393;52.404;13.532;2023-04-24T08:18:28;15.20;75.40
52481;DHT22;38393;52.404;13.532;2023-04-24T08:20:54;15.40;76.00
52481;DHT22;38393;52.404;13.532;2023-04-24T08:23:19;15.80;74.10
52481;DHT22;38393;52.404;13.532;2023-04-24T08:25:45;16.50;72.20
52481;DHT22;38393;52.404;13.532;2023-04-24T08:28:10;16.20;70.40
52481;DHT22;38393;52.404;13.532;2023-04-24T08:30:36;16.30;69.90
52481;DHT22;38393;52.404;13.532;2023-04-24T08:33:02;16.50;68.30
52481;DHT22;38393;52.404;13.532;2023-04-24T08:35:27;16.60;68.50
52481;DHT22;38393;52.404;13.532;2023-04-24T08:37:53;16.60;66.40
52481;DHT22;38393;52.404;13.532;2023-04-24T08:40:23;17.30;62.80
52481;DHT22;38393;52.404;13.532;2023-04-24T08:42:54;17.10;63.10
52481;DHT22;38393;52.404;13.532;2023-04-24T08:45:20;17.30;63.80
52481;DHT22;38393;52.404;13.532;2023-04-24T08:47:46;17.60;62.40
52481;DHT22;38393;52.404;13.532;2023-04-24T08:50:11;17.20;62.00
52481;DHT22;38393;52.404;13.532;2023-04-24T08:52:37;17.00;63.60
52481;DHT22;38393;52.404;13.532;2023-04-24T08:55:04;17.10;64.20
52481;DHT22;38393;52.404;13.532;2023-04-24T08:57:31;16.90;64.10
52481;DHT22;38393;52.404;13.532;2023-04-24T08:59:58;16.70;66.20
52481;DHT22;38393;52.404;13.532;2023-04-24T09:02:25;16.50;67.10
52481;DHT22;38393;52.404;13.532;2023-04-24T09:04:52;16.40;67.10
52481;DHT22;38393;52.404;13.532;2023-04-24T09:07:19;16.40;66.70
52481;DHT22;38393;52.404;13.532;2023-04-24T09:09:45;16.30;65.90
52481;DHT22;38393;52.404;13.532;2023-04-24T09:12:11;16.50;67.20
52481;DHT22;38393;52.404;13.532;2023-04-24T09:14:37;16.60;67.10
52481;DHT22;38393;52.404;13.532;2023-04-24T09:17:07;16.80;64.30
52481;DHT22;38393;52.404;13.532;2023-04-24T09:19:33;16.70;65.20
52481;DHT22;38393;52.404;13.532;2023-04-24T09:21:58;16.50;66.00
52481;DHT22;38393;52.404;13.532;2023-04-24T09:24:24;16.70;67.20
52481;DHT22;38393;52.404;13.532;2023-04-24T09:26:58;16.70;68.90
52481;DHT22;38393;52.404;13.532;2023-04-24T09:29:24;16.80;67.90
52481;DHT22;38393;52.404;13.532;2023-04-24T09:31:49;16.30;68.20
52481;DHT22;38393;52.404;13.532;2023-04-24T09:34:25;16.20;69.20
52481;DHT22;38393;52.404;13.532;2023-04-24T09:36:51;16.20;69.90
52481;DHT22;38393;52.404;13.532;2023-04-24T09:39:17;16.10;70.00
52481;DHT22;38393;52.404;13.532;2023-04-24T09:41:49;16.10;70.50
52481;DHT22;38393;52.404;13.532;2023-04-24T09:44:17;16.10;70.50
52481;DHT22;38393;52.404;13.532;2023-04-24T09:46:44;16.10;69.70
52481;DHT22;38393;52.404;13.532;2023-04-24T09:49:13;16.40;69.40
52481;DHT22;38393;52.404;13.532;2023-04-24T09:51:38;16.40;67.30
52481;DHT22;38393;52.404;13.532;2023-04-24T09:54:17;16.60;67.30
52481;DHT22;38393;52.404;13.532;2023-04-24T09:56:45;16.80;66.90
52481;DHT22;38393;52.404;13.532;2023-04-24T09:59:13;17.00;66.20
52481;DHT22;38393;52.404;13.532;2023-04-24T10:01:39;17.00;66.20
52481;DHT22;38393;52.404;13.532;2023-04-24T10:04:18;16.70;66.60
52481;DHT22;38393;52.404;13.532;2023-04-24T10:06:45;16.50;66.20
52481;DHT22;38393;52.404;13.532;2023-04-24T10:09:11;16.60;67.50
52481;DHT22;38393;52.404;13.532;2023-04-24T10:11:42;16.60;66.60
52481;DHT22;38393;52.404;13.532;2023-04-24T10:14:10;16.50;68.40
52481;DHT22;38393;52.404;13.532;2023-04-24T10:16:37;16.40;68.10
52481;DHT22;38393;52.404;13.532;2023-04-24T10:19:03;16.30;68.00
52481;DHT22;38393;52.404;13.532;2023-04-24T10:21:29;16.40;68.30
52481;DHT22;38393;52.404;13.532;2023-04-24T10:23:55;16.50;69.60
52481;DHT22;38393;52.404;13.532;2023-04-24T10:26:21;16.30;67.60
52481;DHT22;38393;52.404;13.532;2023-04-24T10:28:47;16.60;69.40
52481;DHT22;38393;52.404;13.532;2023-04-24T10:31:14;17.00;66.80
52481;DHT22;38393;52.404;13.532;2023-04-24T10:33:41;17.50;65.80
52481;DHT22;38393;52.404;13.532;2023-04-24T10:36:09;18.00;65.20
52481;DHT22;38393;52.404;13.532;2023-04-24T10:38:35;18.20;63.80
52481;DHT22;38393;52.404;13.532;2023-04-24T10:41:09;17.80;63.50
52481;DHT22;38393;52.404;13.532;2023-04-24T10:43:39;17.50;64.30
52481;DHT22;38393;52.404;13.532;2023-04-24T10:46:06;17.70;65.40
52481;DHT22;38393;52.404;13.532;2023-04-24T10:48:33;17.40;64.90
52481;DHT22;38393;52.404;13.532;2023-04-24T10:50:58;17.70;62.70
52481;DHT22;38393;52.404;13.532;2023-04-24T10:53:27;17.60;64.00
52481;DHT22;38393;52.404;13.532;2023-04-24T10:56:06;17.60;63.70
52481;DHT22;38393;52.404;13.532;2023-04-24T10:58:43;17.40;64.20
52481;DHT22;38393;52.404;13.532;2023-04-24T11:01:23;16.90;63.00
52481;DHT22;38393;52.404;13.532;2023-04-24T11:03:51;17.00;62.30
52481;DHT22;38393;52.404;13.532;2023-04-24T11:06:28;17.20;63.60
52481;DHT22;38393;52.404;13.532;2023-04-24T11:09:02;17.50;63.30
52481;DHT22;38393;52.404;13.532;2023-04-24T11:11:29;18.30;62.70
52481;DHT22;38393;52.404;13.532;2023-04-24T11:18:59;18.20;62.10
52481;DHT22;38393;52.404;13.532;2023-04-24T11:21:28;18.60;60.00
52481;DHT22;38393;52.404;13.532;2023-04-24T11:23:58;18.00;59.20
52481;DHT22;38393;52.404;13.532;2023-04-24T11:26:23;17.70;60.50
52481;DHT22;38393;52.404;13.532;2023-04-24T11:29:07;17.40;61.90
52481;DHT22;38393;52.404;13.532;2023-04-24T11:31:40;17.20;63.60
52481;DHT22;38393;52.404;13.532;2023-04-24T11:34:08;17.00;61.80
52481;DHT22;38393;52.404;13.532;2023-04-24T11:36:35;16.50;64.40
52481;DHT22;38393;52.404;13.532;2023-04-24T11:39:01;16.00;73.00
52481;DHT22;38393;52.404;13.532;2023-04-24T11:41:28;14.00;94.90
52481;DHT22;38393;52.404;13.532;2023-04-24T11:43:55;13.90;95.50
52481;DHT22;38393;52.404;13.532;2023-04-24T11:46:21;14.10;95.90
52481;DHT22;38393;52.404;13.532;2023-04-24T11:48:47;14.10;95.80
52481;DHT22;38393;52.404;13.532;2023-04-24T11:51:13;14.40;95.20
52481;DHT22;38393;52.404;13.532;2023-04-24T11:53:39;14.40;95.60
52481;DHT22;38393;52.404;13.532;2023-04-24T11:56:04;14.80;95.90
52481;DHT22;38393;52.404;13.532;2023-04-24T11:58:38;15.30;96.30
52481;DHT22;38393;52.404;13.532;2023-04-24T12:01:04;15.80;97.00
52481;DHT22;38393;52.404;13.532;2023-04-24T12:03:31;16.00;96.00
52481;DHT22;38393;52.404;13.532;2023-04-24T12:06:09;15.60;93.70
52481;DHT22;38393;52.404;13.532;2023-04-24T12:08:35;15.40;91.20
52481;DHT22;38393;52.404;13.532;2023-04-24T12:11:02;15.40;92.50
52481;DHT22;38393;52.404;13.532;2023-04-24T12:13:28;15.20;89.50
52481;DHT22;38393;52.404;13.532;2023-04-24T12:15:53;15.20;90.60
52481;DHT22;38393;52.404;13.532;2023-04-24T12:18:22;15.10;88.50
52481;DHT22;38393;52.404;13.532;2023-04-24T12:20:48;15.20;91.20
52481;DHT22;38393;52.404;13.532;2023-04-24T12:23:13;15.30;91.50
52481;DHT22;38393;52.404;13.532;2023-04-24T12:25:39;15.50;90.50
52481;DHT22;38393;52.404;13.532;2023-04-24T12:30:34;16.30;84.90
52481;DHT22;38393;52.404;13.532;2023-04-24T12:33:00;16.00;80.50
52481;DHT22;38393;52.404;13.532;2023-04-24T12:35:28;15.90;80.60
52481;DHT22;38393;52.404;13.532;2023-04-24T12:37:53;16.10;83.20
52481;DHT22;38393;52.404;13.532;2023-04-24T12:40:21;16.40;82.80
52481;DHT22;38393;52.404;13.532;2023-04-24T12:42:51;16.50;77.30
52481;DHT22;38393;52.404;13.532;2023-04-24T12:45:19;16.50;68.70
52481;DHT22;38393;52.404;13.532;2023-04-24T12:47:46;16.40;65.60
52481;DHT22;38393;52.404;13.532;2023-04-24T12:50:15;16.40;66.40
52481;DHT22;38393;52.404;13.532;2023-04-24T12:52:41;16.60;62.50
52481;DHT22;38393;52.404;13.532;2023-04-24T12:55:07;17.10;62.50
52481;DHT22;38393;52.404;13.532;2023-04-24T12:57:34;17.50;57.70
52481;DHT22;38393;52.404;13.532;2023-04-24T13:00:00;17.30;53.10
52481;DHT22;38393;52.404;13.532;2023-04-24T13:02:27;17.60;57.60
52481;DHT22;38393;52.404;13.532;2023-04-24T13:04:54;17.70;57.40
52481;DHT22;38393;52.404;13.532;2023-04-24T13:07:20;17.40;54.90
52481;DHT22;38393;52.404;13.532;2023-04-24T13:09:47;17.40;56.20
52481;DHT22;38393;52.404;13.532;2023-04-24T13:12:14;17.70;53.50
52481;DHT22;38393;52.404;13.532;2023-04-24T13:14:40;17.90;51.90
52481;DHT22;38393;52.404;13.532;2023-04-24T13:17:05;18.20;53.60
52481;DHT22;38393;52.404;13.532;2023-04-24T13:19:40;18.20;50.40
52481;DHT22;38393;52.404;13.532;2023-04-24T13:22:06;17.60;49.40
52481;DHT22;38393;52.404;13.532;2023-04-24T13:24:33;17.50;52.40
52481;DHT22;38393;52.404;13.532;2023-04-24T13:26:59;17.70;50.70
52481;DHT22;38393;52.404;13.532;2023-04-24T13:29:25;18.10;49.10
52481;DHT22;38393;52.404;13.532;2023-04-24T13:31:51;17.90;47.10
52481;DHT22;38393;52.404;13.532;2023-04-24T13:34:17;17.60;47.20
52481;DHT22;38393;52.404;13.532;2023-04-24T13:36:43;18.00;47.40
52481;DHT22;38393;52.404;13.532;2023-04-24T13:39:10;17.70;47.40
52481;DHT22;38393;52.404;13.532;2023-04-24T13:41:36;17.30;47.70
52481;DHT22;38393;52.404;13.532;2023-04-24T13:44:05;17.40;48.20
52481;DHT22;38393;52.404;13.532;2023-04-24T13:46:30;17.60;48.00
52481;DHT22;38393;52.404;13.532;2023-04-24T13:48:56;18.00;46.60
52481;DHT22;38393;52.404;13.532;2023-04-24T13:51:23;17.80;45.60
52481;DHT22;38393;52.404;13.532;2023-04-24T13:53:48;17.50;46.60
52481;DHT22;38393;52.404;13.532;2023-04-24T13:56:14;17.50;46.90
52481;DHT22;38393;52.404;13.532;2023-04-24T13:58:40;18.10;48.00
52481;DHT22;38393;52.404;13.532;2023-04-24T14:01:05;18.10;46.90
52481;DHT22;38393;52.404;13.532;2023-04-24T14:03:32;17.70;46.60
52481;DHT22;38393;52.404;13.532;2023-04-24T14:05:58;17.80;45.00
52481;DHT22;38393;52.404;13.532;2023-04-24T14:08:23;18.00;47.30
52481;DHT22;38393;52.404;13.532;2023-04-24T14:10:49;17.90;46.60
52481;DHT22;38393;52.404;13.532;2023-04-24T14:13:16;18.00;46.80
52481;DHT22;38393;52.404;13.532;2023-04-24T14:15:41;18.10;46.80
52481;DHT22;38393;52.404;13.532;2023-04-24T14:18:07;17.80;46.30
52481;DHT22;38393;52.404;13.532;2023-04-24T14:20:32;17.80;47.00
52481;DHT22;38393;52.404;13.532;2023-04-24T14:22:58;17.50;45.70
52481;DHT22;38393;52.404;13.532;2023-04-24T14:25:26;17.70;47.90
52481;DHT22;38393;52.404;13.532;2023-04-24T14:27:52;18.10;47.40
52481;DHT22;38393;52.404;13.532;2023-04-24T14:30:18;18.20;45.00
52481;DHT22;38393;52.404;13.532;2023-04-24T14:32:44;17.90;45.70
52481;DHT22;38393;52.404;13.532;2023-04-24T14:35:10;17.80;46.50
52481;DHT22;38393;52.404;13.532;2023-04-24T14:37:36;18.10;46.10
52481;DHT22;38393;52.404;13.532;2023-04-24T14:40:02;18.00;46.60
52481;DHT22;38393;52.404;13.532;2023-04-24T14:42:29;18.10;46.70
52481;DHT22;38393;52.404;13.532;2023-04-24T14:44:54;17.60;46.30
52481;DHT22;38393;52.404;13.532;2023-04-24T14:47:20;17.70;46.40
52481;DHT22;38393;52.404;13.532;2023-04-24T14:49:49;18.00;45.70
52481;DHT22;38393;52.404;13.532;2023-04-24T14:52:14;18.40;46.10
52481;DHT22;38393;52.404;13.532;2023-04-24T14:54:41;18.40;45.90
52481;DHT22;38393;52.404;13.532;2023-04-24T14:57:07;18.10;45.10
52481;DHT22;38393;52.404;13.532;2023-04-24T14:59:33;18.30;45.60
52481;DHT22;38393;52.404;13.532;2023-04-24T15:01:58;17.90;45.30
52481;DHT22;38393;52.404;13.532;2023-04-24T15:04:24;17.70;45.90
52481;DHT22;38393;52.404;13.532;2023-04-24T15:06:53;17.20;46.10
52481;DHT22;38393;52.404;13.532;2023-04-24T15:09:20;17.00;46.60
52481;DHT22;38393;52.404;13.532;2023-04-24T15:11:45;16.90;46.90
52481;DHT22;38393;52.404;13.532;2023-04-24T15:14:11;17.10;47.40
52481;DHT22;38393;52.404;13.532;2023-04-24T15:16:36;17.10;46.60
52481;DHT22;38393;52.404;13.532;2023-04-24T15:19:02;17.00;47.40
52481;DHT22;38393;52.404;13.532;2023-04-24T15:21:27;17.10;48.00